Ana Sayfa
METAR-TAF:

METAR-TAF

Havaalanları :

Aberdeen, Maryland, Amerika Birleşik Devletleri

Enlem: 39-28N, Boylam: 076-10W, yükseklik: 18 m

Güncel hava durumu gözlemi

Rapor saat 23:54 UTC de 6 saat ve 48 dakika önce yapıldı.
Sakin rüzgar
Sıcaklık 22°C
Nem 88%
Basınç 1012 hPa
Görüş mesafesi: 11.3 km
4500 ft yükseklikte parçalı bulutlu
7000 ft yükseklikte çok bulutlu

METAR: KAPG 232354Z 00000KT 7SM SCT045 OVC070 22/20 A2987

Saat: 02:42 (06:42 UTC)


TAF: eksik

4.000'den fazla havaalanı için hava durumu gözlemleri ve tahminleri (METAR ve TAF raporları).

Kullanılabilir istasyonlar harita üzerinde sarı ve kırmızı noktalarla gösterilir.

İstasyonun adını görmek için fareyi noktanın üzerinde gezdirin.

Sonrasında hava gözlem ve tahminlerini görmek için tıklayın.

Haritayı değiştirmek için: yaklaştırmak için siyah artı işaretli yeşil düğmeye ve uzaklaştırmak için de eksi işaretli düğmeye hızla tıklayın; bitişik haritalar için yeşil okları kullanın.


METAR-TAF: